Terminal Aerodrome Forecast
Issued by NWS

Home | Current Version | Previous Version | Text Only | Print | Product List | Glossary On
Versions: 1 2 3 4 5 6 7 8 9 10 11 12 13 14 15 16 17 18 19
254
FTUS43 KBIS 220538
TAFJMS
TAF
KJMS 220538Z 2206/2306 00000KT P6SM BKN080 OVC120
     FM220900 01006KT 2SM BR OVC030
     FM221300 01009KT 1/2SM -RA FG OVC003
     FM221700 01013KT 2SM -RA BR OVC005
     FM222300 01015KT P6SM VCSH OVC008
     FM230100 36012KT P6SM OVC010=

USA.gov is the U.S. government's official web portal to all federal, state and local government web resources and services.